Nowy Sacz, Poland

11:35 PM CET on January 26, 2015 (GMT +0100)
Stroze | Change Station
CLOSE
Current Station
Personal Weather Station
Location: Stróże, WOJEWóDZTWO MAłOPOLSKIE
Elevation: 1073 ft
Nearby Weather Stations

Elev 1073 ft 49.66 °N, 20.98 °E | Updated 11 seconds ago

Overcast
Overcast
29.3 °F
Feels Like 29 °F
N
0.0
Wind Variable Wind from WNW
Gusts 0.0 mph

Today
High -- | Low -- °F
--% Chance of Precip.
Yesterday
High -- | Low -- °F
Precip. -- in
7:17 AM 4:21 PM
Waxing Crescent, 47% visible
Pressure 29.98 in
Visibility 6.2 miles
Clouds Few 1000 ft
Overcast 2600 ft
Windchill 29 °F
Dew Point 28 °F
Humidity 94%
Rainfall 0.00 in
Snow Depth Not available.
UV 0.0 out of 12
Pollen Not available.
Air Quality Not available.
Flu Activity Not available.
METAR LZTT 262230Z 24009KT 9999 FEW010 OVC026 M01/M04 Q1015

More Conditions Fewer Conditions

Pressure 29.98 in
Visibility 6.2 miles
Clouds Few 1000 ft
Overcast 2600 ft
Windchill 29 °F
Dew Point 28 °F
Humidity 94%
Rainfall 0.00 in
Snow Depth Not available.
UV 0.0 out of 12
Pollen Not available.
Air Quality Not available.
Flu Activity Not available.
METAR LZTT 262230Z 24009KT 9999 FEW010 OVC026 M01/M04 Q1015

More Conditions Fewer Conditions

10-Day Weather Forecast

Almanac

Astronomy

Jan. 26, 2015 Rise Set
Actual Time
Civil Twilight
Nautical Twilight
Astronomical Twilight
Moon
Length of Visible Light
Length of Day
Tomorrow will be .
, % of the Moon is Illuminated

Today's Extremes

Country Highs Country Lows

Community

WunderPhotos

Upload Photos

1,790,385 photos uploaded!

WunderBlogs® & News

Nearby

Air Quality

  Air Quality AQ Index Pollutant
Not available.

Snow Depth

Station Depth Elevation

Earthquake Activity

City Distance Mag. Time & Date
Minimum magnitude displayed is 2.5.

Coastal Water Temperatures

Place Temperature

Nearby Weather Stations